Time;durP1;ratioP1;P1;durP2;ratioP2;P2;SDS_P1;SDS_P2;PMS_P1;PMS_P2;Temp;Humidity;BMP_temperature;BMP_pressure;BME280_temperature;BME280_humidity;BME280_pressure;Samples;Min_cycle;Max_cycle;Signal;HPM_P1;HPM_P2
2023/08/21 00:00:20;;;;;;;6.35;4.72;;;;;;;21.92;100.00;96463.38;4952734;28;24438;-76
2023/08/21 00:02:47;;;;;;;7.78;4.53;;;;;;;21.96;100.00;96461.28;4952621;28;25024;-75
2023/08/21 00:05:15;;;;;;;10.35;4.60;;;;;;;22.09;100.00;96466.16;4953324;28;24469;-76
2023/08/21 00:07:41;;;;;;;9.88;4.53;;;;;;;22.06;100.00;96458.56;4953130;28;24434;-76
2023/08/21 00:10:09;;;;;;;6.78;4.65;;;;;;;21.86;100.00;96463.16;4951979;28;24422;-76
2023/08/21 00:12:36;;;;;;;8.77;4.50;;;;;;;21.64;100.00;96449.41;4952858;28;24830;-76
2023/08/21 00:15:03;;;;;;;5.63;4.18;;;;;;;21.64;100.00;96462.59;4953085;28;24434;-76
2023/08/21 00:17:30;;;;;;;5.82;4.30;;;;;;;21.67;100.00;96458.84;4953040;28;24452;-76
2023/08/21 00:19:56;;;;;;;6.13;4.37;;;;;;;21.59;100.00;96450.84;4952681;29;24477;-76
2023/08/21 00:22:24;;;;;;;6.30;4.65;;;;;;;21.55;100.00;96445.03;4952782;28;24441;-76
2023/08/21 00:24:51;;;;;;;7.18;5.03;;;;;;;21.61;100.00;96457.59;4953160;29;24438;-76
2023/08/21 00:27:17;;;;;;;7.50;4.83;;;;;;;21.62;100.00;96454.00;4953165;28;24453;-76
2023/08/21 00:29:44;;;;;;;8.00;5.30;;;;;;;21.75;100.00;96454.47;4952640;28;24442;-76
2023/08/21 00:32:12;;;;;;;6.25;4.75;;;;;;;21.74;100.00;96446.72;4952924;28;24468;-76
2023/08/21 00:34:38;;;;;;;8.25;4.90;;;;;;;21.50;100.00;96445.47;4952954;28;24819;-75
2023/08/21 00:37:05;;;;;;;6.68;5.20;;;;;;;21.46;100.00;96449.38;4952703;28;24964;-76
2023/08/21 00:39:33;;;;;;;10.53;5.07;;;;;;;21.45;100.00;96450.34;4952733;28;24583;-76
2023/08/21 00:41:59;;;;;;;6.80;5.00;;;;;;;21.53;100.00;96446.16;4953059;28;24426;-76
2023/08/21 00:44:26;;;;;;;8.18;5.40;;;;;;;21.56;100.00;96441.41;4952832;29;24996;-76
2023/08/21 00:46:53;;;;;;;7.07;5.20;;;;;;;21.50;100.00;96445.47;4952729;28;24449;-75
2023/08/21 00:49:20;;;;;;;7.77;5.17;;;;;;;21.34;100.00;96445.28;4952763;28;24450;-75
2023/08/21 00:51:47;;;;;;;5.32;4.78;;;;;;;21.23;100.00;96435.72;4952385;28;24465;-76
2023/08/21 00:54:13;;;;;;;10.68;5.15;;;;;;;21.25;100.00;96443.50;4952445;28;24958;-76
2023/08/21 00:56:41;;;;;;;9.60;5.03;;;;;;;21.20;100.00;96436.00;4952643;28;24950;-76
2023/08/21 00:59:08;;;;;;;7.72;5.03;;;;;;;21.19;100.00;96434.38;4952632;28;24426;-75
2023/08/21 01:01:35;;;;;;;7.90;5.45;;;;;;;21.20;100.00;96429.94;4952013;28;24522;-75
2023/08/21 01:04:02;;;;;;;7.82;6.15;;;;;;;21.23;100.00;96440.16;4952339;29;24441;-76
2023/08/21 01:06:29;;;;;;;8.13;5.32;;;;;;;21.29;100.00;96433.50;4952610;29;24521;-76
2023/08/21 01:08:58;;;;;;;7.70;5.50;;;;;;;21.33;100.00;96433.09;4952428;29;24444;-76
2023/08/21 01:11:32;;;;;;;9.35;6.10;;;;;;;21.29;100.00;96433.50;4952091;28;24421;-76
2023/08/21 01:14:20;;;;;;;8.48;5.65;;;;;;;21.23;100.00;96434.91;4952241;29;24489;-76
2023/08/21 01:16:50;;;;;;;8.57;5.40;;;;;;;21.21;100.00;96434.22;4952290;28;24430;-76
2023/08/21 01:19:25;;;;;;;7.38;5.72;;;;;;;21.23;100.00;96434.91;4952578;28;24437;-76
2023/08/21 01:21:52;;;;;;;10.05;5.22;;;;;;;21.24;100.00;96434.75;4953734;28;24449;-76
2023/08/21 01:24:21;;;;;;;6.65;5.22;;;;;;;21.17;100.00;96436.34;4956121;28;24438;-75
2023/08/21 01:26:47;;;;;;;5.80;5.20;;;;;;;21.20;100.00;96435.19;4956054;29;25048;-75
2023/08/21 01:29:14;;;;;;;8.13;5.38;;;;;;;21.15;100.00;96443.53;4955800;29;24434;-75
2023/08/21 01:31:45;;;;;;;7.20;5.28;;;;;;;21.10;100.00;96440.53;4955599;28;25023;-75
2023/08/21 01:34:15;;;;;;;7.90;5.57;;;;;;;21.05;100.00;96439.28;4941003;29;24438;-76
2023/08/21 01:36:43;;;;;;;6.57;5.35;;;;;;;20.98;100.00;96436.38;4956222;28;24479;-76
2023/08/21 01:39:10;;;;;;;8.73;5.50;;;;;;;21.03;100.00;96435.00;4955894;28;24445;-76
2023/08/21 01:41:38;;;;;;;7.93;5.38;;;;;;;21.08;100.00;96436.38;4955565;28;24453;-75
2023/08/21 01:44:04;;;;;;;6.80;5.68;;;;;;;21.12;100.00;96427.19;4955531;28;25016;-75
2023/08/21 01:46:31;;;;;;;6.15;5.43;;;;;;;21.00;100.00;96430.00;4955691;28;24430;-76
2023/08/21 01:48:57;;;;;;;6.13;5.33;;;;;;;20.91;100.00;96430.03;4955746;29;24445;-75
2023/08/21 01:51:24;;;;;;;6.18;4.63;;;;;;;20.83;100.00;96433.38;4955507;28;24437;-75
2023/08/21 01:53:50;;;;;;;9.95;5.25;;;;;;;20.77;100.00;96437.44;4955313;28;25173;-75
2023/08/21 01:56:17;;;;;;;7.40;5.38;;;;;;;20.81;100.00;96432.72;4955012;28;24993;-75
2023/08/21 01:58:44;;;;;;;6.03;4.90;;;;;;;20.85;100.00;96430.63;4955323;28;24461;-76
2023/08/21 02:01:11;;;;;;;7.10;5.10;;;;;;;20.89;100.00;96427.56;4946759;28;24441;-75
2023/08/21 02:03:37;;;;;;;6.57;4.63;;;;;;;20.78;100.00;96433.00;4950902;29;24434;-76
2023/08/21 02:06:04;;;;;;;6.93;5.00;;;;;;;20.75;100.00;96433.28;4955304;28;24977;-76
2023/08/21 02:08:32;;;;;;;6.28;4.95;;;;;;;20.74;100.00;96431.63;4955230;28;24504;-75
2023/08/21 02:10:59;;;;;;;7.47;4.53;;;;;;;20.74;100.00;96432.47;4954915;28;24976;-76
2023/08/21 02:13:26;;;;;;;6.45;4.45;;;;;;;20.71;100.00;96432.75;4955287;29;24996;-76
2023/08/21 02:15:54;;;;;;;5.85;4.90;;;;;;;20.72;100.00;96437.03;4955577;28;24465;-76
2023/08/21 02:18:20;;;;;;;7.65;5.55;;;;;;;20.69;100.00;96434.69;4936017;29;24511;-76
2023/08/21 02:20:48;;;;;;;5.65;4.90;;;;;;;20.69;100.00;96441.75;4943194;28;24441;-76
2023/08/21 02:23:15;;;;;;;7.40;5.50;;;;;;;20.78;100.00;96436.47;4955224;29;24518;-75
2023/08/21 02:25:42;;;;;;;9.10;4.97;;;;;;;20.76;100.00;96437.56;4955227;29;24453;-76
2023/08/21 02:28:08;;;;;;;8.52;5.32;;;;;;;20.74;100.00;96436.91;4954872;28;24430;-76
2023/08/21 02:30:34;;;;;;;6.50;5.30;;;;;;;20.65;100.00;96437.72;4954911;29;24461;-76
2023/08/21 02:33:03;;;;;;;12.68;5.40;;;;;;;20.54;100.00;96436.94;4953917;28;24470;-76
2023/08/21 02:35:29;;;;;;;5.43;4.73;;;;;;;20.53;100.00;96440.53;4955010;28;24426;-76
2023/08/21 02:37:55;;;;;;;8.63;6.05;;;;;;;20.54;100.00;96438.72;4954321;28;24456;-76
2023/08/21 02:40:22;;;;;;;9.88;6.10;;;;;;;20.57;100.00;96435.00;4954513;28;24445;-76
2023/08/21 02:42:48;;;;;;;7.93;5.22;;;;;;;20.61;100.00;96442.44;4954820;28;24445;-76
2023/08/21 02:45:15;;;;;;;6.75;5.25;;;;;;;20.64;100.00;96447.44;4954814;29;24442;-76
2023/08/21 02:47:42;;;;;;;7.47;5.00;;;;;;;20.59;100.00;96440.94;4954763;28;24461;-76
2023/08/21 02:50:11;;;;;;;6.20;4.45;;;;;;;20.51;100.00;96442.50;4954061;28;24442;-75
2023/08/21 02:52:38;;;;;;;10.13;5.17;;;;;;;20.40;100.00;96436.53;4954135;28;24454;-76
2023/08/21 02:55:05;;;;;;;4.78;4.35;;;;;;;20.34;100.00;96432.63;4954910;28;24429;-76
2023/08/21 02:57:32;;;;;;;6.10;4.93;;;;;;;20.23;100.00;96433.63;4954834;28;24439;-76
2023/08/21 02:59:58;;;;;;;7.43;4.95;;;;;;;20.22;100.00;96437.22;4954268;29;24442;-76
2023/08/21 03:02:25;;;;;;;11.05;4.85;;;;;;;20.24;100.00;96440.53;4953839;28;24442;-76
2023/08/21 03:04:52;;;;;;;5.72;4.90;;;;;;;20.35;100.00;96433.47;4954140;29;24441;-76
2023/08/21 03:07:20;;;;;;;7.88;5.00;;;;;;;20.35;100.00;96430.84;4954421;28;24442;-76
2023/08/21 03:09:47;;;;;;;7.22;5.00;;;;;;;20.36;100.00;96427.22;4953999;28;24806;-75
2023/08/21 03:12:14;;;;;;;7.22;4.97;;;;;;;20.39;100.00;96426.94;4953887;28;25095;-76
2023/08/21 03:14:40;;;;;;;13.25;5.82;;;;;;;20.24;100.00;96431.81;4954022;29;24422;-76
2023/08/21 03:17:07;;;;;;;8.65;5.70;;;;;;;20.17;100.00;96430.72;4954141;29;24462;-76
2023/08/21 03:19:33;;;;;;;5.18;4.65;;;;;;;20.16;100.00;96426.44;4949352;28;24459;-75
2023/08/21 03:22:00;;;;;;;7.95;5.20;;;;;;;20.18;100.00;96430.59;4950208;28;24438;-75
2023/08/21 03:24:28;;;;;;;6.80;5.28;;;;;;;20.19;100.00;96436.69;4953875;29;24430;-76
2023/08/21 03:26:54;;;;;;;5.50;4.82;;;;;;;20.27;100.00;96437.63;4953872;29;24438;-75
2023/08/21 03:29:20;;;;;;;7.50;5.00;;;;;;;20.27;100.00;96429.72;4954164;28;24784;-76
2023/08/21 03:31:48;;;;;;;6.75;4.38;;;;;;;20.23;100.00;96435.41;4953518;28;24441;-76
2023/08/21 03:34:15;;;;;;;6.87;4.53;;;;;;;20.22;100.00;96431.97;4953455;29;24533;-76
2023/08/21 03:36:41;;;;;;;6.75;5.05;;;;;;;20.24;100.00;96435.28;4953193;29;24439;-76
2023/08/21 03:39:08;;;;;;;4.70;4.10;;;;;;;20.24;100.00;96429.19;4953316;28;24438;-76
2023/08/21 03:41:36;;;;;;;6.95;5.30;;;;;;;20.29;100.00;96435.69;4952909;28;24442;-76
2023/08/21 03:44:02;;;;;;;9.00;4.93;;;;;;;20.24;100.00;96439.69;4953339;28;24448;-76
2023/08/21 03:46:29;;;;;;;7.18;4.80;;;;;;;20.22;100.00;96439.84;4953443;28;24437;-76
2023/08/21 03:48:55;;;;;;;6.43;5.07;;;;;;;20.16;100.00;96436.94;4953220;28;24438;-76
2023/08/21 03:51:22;;;;;;;6.65;4.70;;;;;;;20.12;100.00;96443.47;4953213;28;24826;-76
2023/08/21 03:53:48;;;;;;;7.25;5.35;;;;;;;20.05;100.00;96445.81;4953182;28;24461;-76
2023/08/21 03:56:14;;;;;;;9.07;5.63;;;;;;;19.95;100.00;96445.81;4953119;29;24798;-76
2023/08/21 03:58:42;;;;;;;8.40;5.20;;;;;;;19.93;100.00;96442.50;4953474;28;24438;-76
2023/08/21 04:01:09;;;;;;;7.72;5.53;;;;;;;19.89;100.00;96443.72;4952314;28;24457;-76
2023/08/21 04:03:35;;;;;;;7.43;5.68;;;;;;;19.87;100.00;96444.81;4953404;29;24457;-76
2023/08/21 04:06:02;;;;;;;7.03;5.50;;;;;;;19.88;100.00;96452.59;4953574;28;24426;-76
2023/08/21 04:08:29;;;;;;;8.40;5.53;;;;;;;19.91;100.00;96449.69;4953527;28;24465;-76
2023/08/21 04:10:59;;;;;;;9.75;5.97;;;;;;;19.91;100.00;96448.84;4953032;28;24442;-76
2023/08/21 04:13:25;;;;;;;7.28;5.88;;;;;;;19.93;100.00;96458.25;4952805;28;24453;-76
2023/08/21 04:15:55;;;;;;;6.17;5.40;;;;;;;19.91;100.00;96461.97;4952743;28;24430;-76
2023/08/21 04:18:22;;;;;;;17.38;5.38;;;;;;;19.88;100.00;96462.28;4953119;28;24440;-76
2023/08/21 04:20:48;;;;;;;7.53;5.10;;;;;;;19.91;100.00;96462.84;4953088;28;24457;-77
2023/08/21 04:23:15;;;;;;;6.43;5.35;;;;;;;19.99;100.00;96464.78;4952992;29;24438;-78
2023/08/21 04:25:42;;;;;;;6.07;4.68;;;;;;;19.94;100.00;96459.91;4954535;28;24445;-77
2023/08/21 04:28:09;;;;;;;6.60;4.85;;;;;;;19.85;100.00;96457.28;4949473;28;24978;-77
2023/08/21 04:30:36;;;;;;;5.65;4.60;;;;;;;19.72;100.00;96450.47;4954131;28;24442;-77
2023/08/21 04:33:05;;;;;;;7.80;4.18;;;;;;;19.65;100.00;96459.03;4948355;29;24458;-77
2023/08/21 04:35:37;;;;;;;7.65;4.97;;;;;;;19.61;100.00;96458.44;4953602;28;24989;-77
2023/08/21 04:38:04;;;;;;;6.70;4.63;;;;;;;19.64;100.00;96460.84;4954050;28;24503;-77
2023/08/21 04:40:30;;;;;;;6.40;4.70;;;;;;;19.75;100.00;96458.09;4954116;28;24527;-77
2023/08/21 04:42:57;;;;;;;8.88;5.20;;;;;;;19.80;100.00;96462.94;4953068;28;24962;-76
2023/08/21 04:45:23;;;;;;;6.72;4.93;;;;;;;19.69;100.00;96458.66;4952882;29;24442;-76
2023/08/21 04:47:50;;;;;;;9.98;4.47;;;;;;;19.65;100.00;96464.28;4952780;28;24969;-76
2023/08/21 04:50:18;;;;;;;8.40;5.32;;;;;;;19.69;100.00;96455.16;4953074;29;24433;-76
2023/08/21 04:52:45;;;;;;;5.03;4.50;;;;;;;19.72;100.00;96457.53;4953041;28;24457;-76
2023/08/21 04:55:11;;;;;;;5.65;4.70;;;;;;;19.64;100.00;96457.38;4952822;28;25160;-76
2023/08/21 04:57:38;;;;;;;7.93;4.97;;;;;;;19.59;100.00;96455.97;4952491;29;24433;-76
2023/08/21 05:00:05;;;;;;;12.13;5.28;;;;;;;19.64;100.00;96462.66;4952607;29;24438;-76
2023/08/21 05:02:31;;;;;;;8.60;6.05;;;;;;;19.78;100.00;96464.88;4952378;28;25209;-76
2023/08/21 05:04:58;;;;;;;6.55;5.80;;;;;;;19.87;100.00;96466.69;4954066;29;24442;-77
2023/08/21 05:07:26;;;;;;;11.90;5.80;;;;;;;19.95;100.00;96474.75;4954542;28;24437;-78
2023/08/21 05:09:53;;;;;;;7.28;5.43;;;;;;;20.03;100.00;96480.13;4952476;28;24442;-77
2023/08/21 05:12:19;;;;;;;9.33;4.97;;;;;;;20.11;100.00;96476.81;4953744;28;24953;-78
2023/08/21 05:14:46;;;;;;;9.55;5.55;;;;;;;20.22;100.00;96478.47;4954788;28;25021;-77
2023/08/21 05:17:12;;;;;;;8.57;5.78;;;;;;;20.36;100.00;96485.97;4957022;29;24438;-79
2023/08/21 05:19:39;;;;;;;6.18;5.22;;;;;;;20.41;100.00;96481.09;4958128;29;24421;-78
2023/08/21 05:22:05;;;;;;;6.88;5.45;;;;;;;20.44;100.00;96480.00;4951437;28;24985;-77
2023/08/21 05:24:33;;;;;;;5.77;5.03;;;;;;;20.50;100.00;96479.44;4951743;28;24426;-77
2023/08/21 05:26:59;;;;;;;9.80;5.93;;;;;;;20.59;100.00;96477.81;4951317;28;24505;-77
2023/08/21 05:29:26;;;;;;;7.90;5.75;;;;;;;20.73;100.00;96482.63;4952103;29;24452;-77
2023/08/21 05:31:52;;;;;;;8.95;5.63;;;;;;;20.71;100.00;96480.13;4951869;28;24449;-77
2023/08/21 05:34:19;;;;;;;6.82;5.85;;;;;;;20.70;100.00;96482.91;4951869;29;24451;-77
2023/08/21 05:36:45;;;;;;;6.75;5.43;;;;;;;20.72;100.00;96483.56;4952577;29;24988;-77
2023/08/21 05:39:13;;;;;;;9.13;6.07;;;;;;;20.74;100.00;96489.53;4951240;29;24540;-76
2023/08/21 05:41:40;;;;;;;6.82;5.50;;;;;;;20.67;100.00;96480.56;4952754;28;24446;-77
2023/08/21 05:44:07;;;;;;;9.15;6.13;;;;;;;20.65;100.00;96487.75;4958601;28;25008;-78
2023/08/21 05:46:33;;;;;;;6.47;5.70;;;;;;;20.80;100.00;96486.31;4973839;28;24424;-76
2023/08/21 05:49:00;;;;;;;7.00;5.72;;;;;;;20.80;100.00;96486.31;4957413;28;24441;-77
2023/08/21 05:51:26;;;;;;;6.18;5.47;;;;;;;20.82;100.00;96483.56;4953402;28;24442;-79
2023/08/21 05:53:53;;;;;;;8.38;5.78;;;;;;;20.96;100.00;96491.84;4957162;28;24457;-78
2023/08/21 05:56:19;;;;;;;8.90;5.95;;;;;;;21.07;100.00;96488.22;4957167;28;24438;-79
2023/08/21 05:58:47;;;;;;;9.63;5.35;;;;;;;21.19;100.00;96488.84;4952955;28;24886;-77
2023/08/21 06:01:14;;;;;;;7.47;5.90;;;;;;;21.23;100.00;96490.22;4951367;28;24445;-77
2023/08/21 06:03:40;;;;;;;6.05;5.45;;;;;;;21.24;100.00;96490.06;4949219;28;24449;-78
2023/08/21 06:06:07;;;;;;;7.47;5.60;;;;;;;21.32;100.00;96492.00;4946595;28;24519;-78
2023/08/21 06:08:33;;;;;;;6.20;5.47;;;;;;;21.35;100.00;96497.00;4949223;28;24442;-78
2023/08/21 06:10:59;;;;;;;6.05;5.30;;;;;;;21.51;100.00;96491.13;4955341;28;24481;-77
2023/08/21 06:13:26;;;;;;;6.93;5.43;;;;;;;21.77;100.00;96493.03;4955306;28;24449;-77
2023/08/21 06:15:54;;;;;;;8.65;5.85;;;;;;;21.95;100.00;96492.09;4955099;28;24949;-77
2023/08/21 06:18:20;;;;;;;7.80;6.22;;;;;;;22.13;100.00;96496.53;4955161;28;24421;-77
2023/08/21 06:20:47;;;;;;;8.15;6.07;;;;;;;22.27;100.00;96493.41;4955058;28;24429;-77
2023/08/21 06:23:13;;;;;;;9.13;6.05;;;;;;;22.32;100.00;96496.44;4954883;28;24962;-77
2023/08/21 06:25:40;;;;;;;8.25;5.90;;;;;;;22.25;100.00;96495.41;4955554;28;24441;-77
2023/08/21 06:28:06;;;;;;;9.43;6.53;;;;;;;22.20;100.00;96498.47;4955559;28;24429;-78
2023/08/21 06:30:33;;;;;;;7.40;5.70;;;;;;;22.22;100.00;96493.88;4954882;28;24421;-77
2023/08/21 06:33:05;;;;;;;9.85;6.40;;;;;;;22.18;100.00;96499.63;4955256;28;24431;-77
2023/08/21 06:35:32;;;;;;;9.27;6.38;;;;;;;22.16;100.00;96491.84;4955271;28;24465;-78
2023/08/21 06:37:58;;;;;;;12.30;5.90;;;;;;;22.28;100.00;96497.72;4954797;28;24981;-77
2023/08/21 06:40:25;;;;;;;11.50;6.93;;;;;;;22.36;100.00;96510.16;4954553;28;24425;-78
2023/08/21 06:42:52;;;;;;;13.10;6.10;;;;;;;22.41;100.00;96507.91;4954592;28;24426;-77
2023/08/21 06:45:19;;;;;;;11.57;6.32;;;;;;;22.52;100.00;96506.84;4954616;28;24448;-77
2023/08/21 06:47:45;;;;;;;41.53;10.20;;;;;;;22.82;100.00;96502.94;4954171;28;24438;-77
2023/08/21 06:50:13;;;;;;;27.70;9.38;;;;;;;23.11;100.00;96510.59;4953950;28;24442;-77
2023/08/21 06:52:40;;;;;;;11.38;6.25;;;;;;;23.22;100.00;96504.22;4953972;28;24445;-78
2023/08/21 06:55:07;;;;;;;7.50;5.82;;;;;;;23.28;100.00;96514.16;4955368;28;24461;-78
2023/08/21 06:57:34;;;;;;;13.05;6.13;;;;;;;23.33;100.00;96506.59;4953535;29;24442;-77
2023/08/21 07:00:00;;;;;;;10.48;5.57;;;;;;;23.36;100.00;96506.25;4953084;28;24445;-77
2023/08/21 07:02:27;;;;;;;9.60;5.90;;;;;;;23.55;100.00;96507.84;4953172;28;24557;-78
2023/08/21 07:04:53;;;;;;;11.90;6.15;;;;;;;23.57;100.00;96514.63;4958422;28;24441;-76
2023/08/21 07:07:21;;;;;;;8.75;6.07;;;;;;;23.79;100.00;96512.44;4953727;29;24434;-77
2023/08/21 07:09:48;;;;;;;12.13;6.25;;;;;;;23.90;100.00;96518.25;4953579;28;24461;-76
2023/08/21 07:12:14;;;;;;;12.80;6.13;;;;;;;24.03;100.00;96511.66;4952734;28;24445;-76
2023/08/21 07:14:41;;;;;;;9.98;5.97;;;;;;;24.03;100.00;96511.66;4953195;28;24453;-78
2023/08/21 07:17:07;;;;;;;8.60;5.93;;;;;;;24.11;100.00;96514.34;4953176;28;24977;-77
2023/08/21 07:19:33;;;;;;;7.82;5.47;;;;;;;24.32;100.00;96512.03;4953142;28;24445;-77
2023/08/21 07:22:00;;;;;;;57.60;15.68;;;;;;;24.85;100.00;96520.53;4953281;28;24438;-77
2023/08/21 07:24:28;;;;;;;13.07;6.25;;;;;;;24.87;100.00;96514.06;4955706;28;24444;-77
2023/08/21 07:26:54;;;;;;;8.67;5.63;;;;;;;25.00;100.00;96520.69;4954115;28;24576;-76
2023/08/21 07:29:21;;;;;;;12.25;5.88;;;;;;;25.13;100.00;96523.66;4953221;28;24438;-76
2023/08/21 07:31:47;;;;;;;14.82;6.35;;;;;;;25.43;100.00;96523.94;4952403;28;24449;-75
2023/08/21 07:34:14;;;;;;;8.70;5.22;;;;;;;25.52;100.00;96523.75;4952883;28;24450;-76
2023/08/21 07:36:40;;;;;;;7.70;5.60;;;;;;;25.55;100.00;96523.41;4952636;29;24439;-76
2023/08/21 07:39:07;;;;;;;6.93;5.32;;;;;;;25.76;100.00;96528.13;4952936;28;24965;-76
2023/08/21 07:41:35;;;;;;;9.63;5.43;;;;;;;26.16;100.00;96518.31;4953248;28;24453;-77
2023/08/21 07:44:02;;;;;;;10.30;5.68;;;;;;;26.22;100.00;96519.47;4952754;28;24438;-75
2023/08/21 07:46:29;;;;;;;9.63;5.40;;;;;;;26.15;100.00;96526.47;4952891;28;24497;-75
2023/08/21 07:48:55;;;;;;;13.18;5.45;;;;;;;26.18;100.00;96519.00;4953312;29;24495;-75
2023/08/21 07:51:22;;;;;;;22.50;6.40;;;;;;;26.58;100.00;96519.72;4952662;28;24445;-75
2023/08/21 07:53:48;;;;;;;8.40;5.10;;;;;;;26.91;100.00;96530.09;4952634;29;25024;-75
2023/08/21 07:56:15;;;;;;;10.30;4.97;;;;;;;26.69;100.00;96527.28;4952738;28;24441;-76
2023/08/21 07:58:43;;;;;;;9.88;5.28;;;;;;;26.91;100.00;96535.41;4952177;29;24434;-75
2023/08/21 08:01:09;;;;;;;16.63;6.43;;;;;;;27.41;100.00;96531.31;4952617;28;24450;-76
2023/08/21 08:03:37;;;;;;;83.25;15.15;;;;;;;27.91;100.00;96527.88;4953152;29;24445;-77
2023/08/21 08:06:04;;;;;;;15.88;6.32;;;;;;;28.14;100.00;96527.75;4953097;29;24972;-76
2023/08/21 08:08:30;;;;;;;35.03;7.30;;;;;;;28.31;100.00;96517.69;4952449;28;24442;-75
2023/08/21 08:11:03;;;;;;;6.13;4.30;;;;;;;28.51;100.00;96523.25;4952576;28;24457;-76
2023/08/21 08:13:30;;;;;;;7.20;4.43;;;;;;;28.65;100.00;96524.19;4952401;28;24434;-76
2023/08/21 08:15:58;;;;;;;10.40;4.80;;;;;;;28.73;100.00;96523.25;4953199;28;24443;-75
2023/08/21 08:18:25;;;;;;;54.53;9.50;;;;;;;29.14;100.00;96521.53;4952737;28;24450;-77
2023/08/21 08:20:51;;;;;;;33.45;8.15;;;;;;;29.40;100.00;96523.56;4952444;28;24442;-75
2023/08/21 08:23:18;;;;;;;27.95;7.28;;;;;;;29.60;100.00;96529.06;4952942;29;24546;-75
2023/08/21 08:25:44;;;;;;;9.27;4.80;;;;;;;29.85;100.00;96525.88;4952803;29;24441;-75
2023/08/21 08:28:11;;;;;;;12.07;5.07;;;;;;;30.07;100.00;96529.25;4952623;28;24457;-75
2023/08/21 08:30:37;;;;;;;6.25;4.28;;;;;;;30.08;100.00;96518.41;4952207;28;24568;-77
2023/08/21 08:33:06;;;;;;;11.90;4.78;;;;;;;29.96;100.00;96522.66;4952269;29;24446;-76
2023/08/21 08:35:32;;;;;;;7.78;4.63;;;;;;;30.24;100.00;96521.75;4950878;29;24553;-75
2023/08/21 08:37:59;;;;;;;6.70;4.32;;;;;;;30.29;100.00;96524.63;4953058;28;24986;-76
2023/08/21 08:40:25;;;;;;;9.60;4.93;;;;;;;30.38;100.00;96518.09;4954133;29;24434;-77
2023/08/21 08:42:52;;;;;;;6.93;4.32;;;;;;;30.46;100.00;96523.25;4954871;28;24445;-76
2023/08/21 08:45:30;;;;;;;8.13;4.35;;;;;;;29.75;100.00;96522.78;4956759;28;24437;-77
2023/08/21 08:47:58;;;;;;;6.93;4.10;;;;;;;29.45;100.00;96532.84;4956469;29;24446;-75
2023/08/21 08:50:29;;;;;;;10.07;4.77;;;;;;;29.71;100.00;96529.53;4953841;28;24441;-75
2023/08/21 08:52:56;;;;;;;7.15;3.75;;;;;;;30.27;100.00;96519.50;4952764;28;24445;-77
2023/08/21 08:55:23;;;;;;;5.72;4.28;;;;;;;29.80;100.00;96523.00;4954828;28;24461;-79
2023/08/21 08:57:49;;;;;;;9.32;3.60;;;;;;;30.03;100.00;96528.84;4957170;28;24444;-79
2023/08/21 09:00:17;;;;;;;11.63;3.90;;;;;;;30.14;100.00;96527.44;4950134;29;24446;-78
2023/08/21 09:02:43;;;;;;;7.63;4.07;;;;;;;29.78;100.00;96528.56;4951542;28;24445;-77
2023/08/21 09:05:10;;;;;;;4.97;3.45;;;;;;;29.93;100.00;96527.59;4951588;28;24430;-77
2023/08/21 09:07:38;;;;;;;7.70;3.70;;;;;;;30.32;100.00;96526.91;4955219;28;24442;-79
2023/08/21 09:10:13;;;;;;;6.50;3.28;;;;;;;30.79;99.50;96533.19;4956696;28;25036;-79
2023/08/21 09:12:40;;;;;;;6.03;3.55;;;;;;;30.74;79.17;96527.59;4959272;28;24442;-79
2023/08/21 09:15:08;;;;;;;7.47;3.88;;;;;;;30.95;78.90;96522.06;4956449;29;24465;-81
2023/08/21 09:17:35;;;;;;;8.35;3.42;;;;;;;30.78;69.87;96527.03;4956002;28;24469;-79
2023/08/21 09:20:05;;;;;;;7.00;3.88;;;;;;;31.10;72.16;96525.38;4955761;29;24465;-79
2023/08/21 09:22:31;;;;;;;10.18;3.95;;;;;;;30.48;73.33;96528.38;4948647;28;24485;-79
2023/08/21 09:25:06;;;;;;;5.68;3.80;;;;;;;30.93;73.71;96523.34;4956136;29;24435;-79
2023/08/21 09:27:33;;;;;;;12.20;3.70;;;;;;;30.84;70.17;96526.19;4956659;29;24571;-79
2023/08/21 09:30:00;;;;;;;5.80;3.88;;;;;;;31.06;72.31;96526.81;4956173;29;24444;-79
2023/08/21 09:32:26;;;;;;;5.57;3.60;;;;;;;31.24;76.14;96531.53;4954947;28;25005;-79
2023/08/21 09:34:53;;;;;;;12.27;4.07;;;;;;;31.12;73.14;96527.03;4955555;28;24481;-79
2023/08/21 09:37:19;;;;;;;5.68;4.03;;;;;;;31.06;70.14;96526.81;4955370;28;25028;-80
2023/08/21 09:39:46;;;;;;;6.82;4.10;;;;;;;31.47;74.87;96531.09;4955292;29;24442;-81
2023/08/21 09:42:15;;;;;;;7.50;4.15;;;;;;;31.64;70.74;96519.97;4955039;28;24442;-79
2023/08/21 09:44:43;;;;;;;8.32;4.30;;;;;;;31.79;70.80;96529.38;4958406;28;24437;-78
2023/08/21 09:47:10;;;;;;;5.78;3.78;;;;;;;31.91;73.49;96521.53;4958418;29;24473;-78
2023/08/21 09:49:39;;;;;;;7.70;3.73;;;;;;;31.45;66.08;96521.66;4959784;28;24445;-78
2023/08/21 09:52:06;;;;;;;6.80;3.73;;;;;;;31.27;71.65;96519.59;4959381;28;24819;-78
2023/08/21 09:54:34;;;;;;;5.55;3.60;;;;;;;31.57;72.35;96517.31;4959713;28;24484;-78
2023/08/21 09:57:03;;;;;;;6.10;3.90;;;;;;;31.88;74.18;96510.44;4959667;28;24464;-79
2023/08/21 09:59:31;;;;;;;8.88;4.47;;;;;;;32.01;70.88;96510.38;4960666;28;24438;-80
2023/08/21 10:01:59;;;;;;;14.38;4.97;;;;;;;32.11;75.49;96516.06;4958703;28;24501;-79
2023/08/21 10:04:28;;;;;;;11.23;4.15;;;;;;;32.13;74.97;96508.66;4962699;29;25170;-78
2023/08/21 10:06:56;;;;;;;10.18;4.60;;;;;;;31.80;73.61;96503.41;4959085;29;24443;-78
2023/08/21 10:09:24;;;;;;;11.65;4.32;;;;;;;31.75;75.85;96504.06;4957727;29;24446;-78
2023/08/21 10:11:52;;;;;;;6.10;4.45;;;;;;;31.80;73.28;96501.56;4956218;28;24802;-78
2023/08/21 10:14:21;;;;;;;8.38;4.30;;;;;;;31.77;71.13;96493.94;4955689;28;24834;-77
2023/08/21 10:16:49;;;;;;;8.15;4.90;;;;;;;31.96;73.59;96502.97;4955574;28;24886;-77
2023/08/21 10:19:18;;;;;;;7.25;4.28;;;;;;;31.88;71.35;96495.16;4955010;28;24450;-77
2023/08/21 10:21:48;;;;;;;6.28;4.18;;;;;;;31.04;69.22;96491.44;4954537;28;24449;-76
2023/08/21 10:24:27;;;;;;;9.50;4.30;;;;;;;30.98;71.88;96494.09;4974803;23;25612;-78
2023/08/21 10:26:53;;;;;;;7.70;4.30;;;;;;;31.33;74.22;96487.50;4967629;28;24994;-78
2023/08/21 10:29:20;;;;;;;7.07;4.53;;;;;;;31.79;76.20;96480.34;4973655;28;24436;-78
2023/08/21 10:31:46;;;;;;;8.23;4.20;;;;;;;31.95;74.75;96479.88;4973641;28;24437;-78
2023/08/21 10:34:14;;;;;;;8.85;4.63;;;;;;;31.67;68.62;96487.38;4969238;28;24456;-78
2023/08/21 10:37:06;;;;;;;7.53;4.32;;;;;;;31.04;72.71;96488.75;4967448;28;24449;-78
2023/08/21 10:39:34;;;;;;;9.10;5.00;;;;;;;31.14;72.56;96485.63;4974585;28;24436;-78
2023/08/21 10:42:03;;;;;;;8.73;5.00;;;;;;;30.92;75.28;96479.69;4968182;28;24519;-77
2023/08/21 10:44:51;;;;;;;9.20;4.33;;;;;;;30.66;77.34;96485.84;4972102;28;24492;-76
2023/08/21 10:47:20;;;;;;;8.82;4.70;;;;;;;30.39;73.40;96476.97;4958262;28;25060;-79
2023/08/21 10:49:50;;;;;;;13.00;4.63;;;;;;;30.46;73.93;96479.66;4972933;28;24436;-79
2023/08/21 10:52:22;;;;;;;4.35;3.95;;;;;;;30.28;72.52;96477.56;4973026;28;24440;-78
2023/08/21 10:54:50;;;;;;;7.55;4.53;;;;;;;30.23;72.96;96475.53;4963704;28;24458;-79
2023/08/21 10:57:17;;;;;;;9.60;4.40;;;;;;;30.24;74.89;96479.00;4973304;28;24459;-79
2023/08/21 10:59:57;;;;;;;7.22;4.30;;;;;;;30.03;71.88;96475.41;4955512;28;24810;-78
2023/08/21 11:02:25;;;;;;;9.73;4.10;;;;;;;30.26;74.20;96466.25;4954227;28;24449;-78
2023/08/21 11:04:53;;;;;;;7.35;4.43;;;;;;;30.77;81.60;96479.09;4972701;28;24523;-79
2023/08/21 11:07:20;;;;;;;7.93;3.88;;;;;;;30.83;70.52;96473.75;4956652;28;24441;-79
2023/08/21 11:09:47;;;;;;;8.70;4.47;;;;;;;31.27;72.37;96474.09;4972792;28;24440;-79
2023/08/21 11:12:16;;;;;;;8.10;4.40;;;;;;;30.93;73.24;96467.97;4972375;28;24882;-79
2023/08/21 11:14:43;;;;;;;10.38;4.68;;;;;;;31.26;73.58;96472.44;4964646;28;24472;-79
2023/08/21 11:17:11;;;;;;;5.57;3.58;;;;;;;30.54;71.23;96474.13;4972704;28;24441;-78
2023/08/21 11:19:38;;;;;;;8.07;4.53;;;;;;;30.74;76.69;96466.97;4972300;28;24445;-78
2023/08/21 11:22:06;;;;;;;6.80;4.23;;;;;;;30.99;78.22;96469.00;4963501;28;25011;-79
2023/08/21 11:24:41;;;;;;;5.32;4.07;;;;;;;31.13;72.90;96473.31;4953481;28;24853;-79